Time;durP1;ratioP1;P1;durP2;ratioP2;P2;SDS_P1;SDS_P2;PMS_P1;PMS_P2;Temp;Humidity;BMP_temperature;BMP_pressure;BME280_temperature;BME280_humidity;BME280_pressure;Samples;Min_cycle;Max_cycle;Signal;HPM_P1;HPM_P2
2021/05/25 00:02:24;;;;;;;3.60;2.10;;;;;;;18.70;56.99;100695.44;5046586;28;20369;-24
2021/05/25 00:04:49;;;;;;;6.00;2.05;;;;;;;18.81;56.74;100695.28;5044957;28;20064;-23
2021/05/25 00:07:15;;;;;;;4.07;1.70;;;;;;;18.48;57.81;100691.72;5045032;28;20032;-23
2021/05/25 00:09:41;;;;;;;4.93;2.00;;;;;;;18.28;58.70;100694.22;5046262;28;20028;-23
2021/05/25 00:12:06;;;;;;;2.08;1.73;;;;;;;17.83;60.12;100696.16;5046452;28;20711;-24
2021/05/25 00:14:32;;;;;;;3.15;1.92;;;;;;;17.63;61.27;100701.28;5046428;28;20492;-23
2021/05/25 00:16:57;;;;;;;3.55;2.05;;;;;;;17.68;61.36;100694.06;5049912;28;20868;-23
2021/05/25 00:19:23;;;;;;;6.07;2.28;;;;;;;18.46;58.71;100676.84;5049778;28;20033;-23
2021/05/25 00:21:49;;;;;;;4.28;1.80;;;;;;;18.30;59.14;100694.00;5049762;28;20182;-24
2021/05/25 00:24:14;;;;;;;4.13;2.00;;;;;;;17.81;60.26;100675.88;5049333;28;20041;-23
2021/05/25 00:26:40;;;;;;;3.60;2.00;;;;;;;18.28;59.15;100691.53;5049835;28;20104;-23
2021/05/25 00:29:05;;;;;;;3.50;2.10;;;;;;;18.78;57.62;100687.66;5049685;28;20067;-23
2021/05/25 00:31:31;;;;;;;4.90;1.90;;;;;;;18.23;58.88;100683.41;5049817;28;20524;-23
2021/05/25 00:33:57;;;;;;;2.88;2.00;;;;;;;17.93;59.86;100683.88;5049544;28;20044;-23
2021/05/25 00:36:24;;;;;;;4.85;1.88;;;;;;;18.43;58.48;100686.28;5049522;28;20029;-23
2021/05/25 00:38:50;;;;;;;3.42;1.90;;;;;;;18.50;57.83;100683.38;5049630;28;20123;-24
2021/05/25 00:41:15;;;;;;;4.25;2.05;;;;;;;18.33;58.55;100683.50;5049829;28;20157;-23
2021/05/25 00:43:41;;;;;;;3.95;2.10;;;;;;;18.40;58.65;100694.91;5049466;28;20480;-23
2021/05/25 00:46:06;;;;;;;4.53;1.85;;;;;;;18.74;57.52;100689.25;5049303;28;20057;-24
2021/05/25 00:48:32;;;;;;;3.60;1.90;;;;;;;18.67;57.67;100688.66;5047709;28;20154;-24
2021/05/25 00:50:57;;;;;;;3.78;1.88;;;;;;;18.75;57.52;100693.56;5049070;28;20474;-23
2021/05/25 00:53:23;;;;;;;2.67;1.67;;;;;;;18.60;58.02;100682.66;5049596;28;20468;-23
2021/05/25 00:55:49;;;;;;;13.85;2.35;;;;;;;18.53;57.76;100684.75;5049408;28;20033;-23
2021/05/25 00:58:14;;;;;;;5.20;1.90;;;;;;;18.47;58.01;100684.72;5048897;28;20409;-23
2021/05/25 01:00:44;;;;;;;4.32;2.13;;;;;;;18.31;58.47;100674.00;5031294;28;20083;-24
2021/05/25 01:03:10;;;;;;;2.95;1.80;;;;;;;18.28;58.81;100686.13;5048012;28;20027;-23
2021/05/25 01:05:36;;;;;;;4.85;1.83;;;;;;;18.44;58.44;100687.91;5049004;28;20110;-23
2021/05/25 01:08:01;;;;;;;4.70;2.08;;;;;;;18.26;59.06;100682.88;5048908;28;20481;-24
2021/05/25 01:10:45;;;;;;;3.33;2.20;;;;;;;18.12;59.04;100677.06;5048701;28;20588;-23
2021/05/25 01:13:21;;;;;;;3.70;1.90;;;;;;;18.41;58.39;100688.44;5048979;28;20087;-24
2021/05/25 01:15:48;;;;;;;2.60;1.88;;;;;;;18.09;58.67;100665.97;5047649;28;20033;-24
2021/05/25 01:18:13;;;;;;;3.38;2.20;;;;;;;18.18;59.29;100692.25;5049035;28;20021;-23
2021/05/25 01:20:39;;;;;;;2.97;1.83;;;;;;;18.33;58.94;100699.69;5048838;28;20036;-23
2021/05/25 01:23:07;;;;;;;5.22;1.83;;;;;;;18.17;58.98;100662.81;5048756;28;20060;-24
2021/05/25 01:25:32;;;;;;;2.75;1.70;;;;;;;17.98;59.81;100692.84;5048653;28;20037;-24
2021/05/25 01:28:01;;;;;;;3.65;2.00;;;;;;;17.67;60.85;100691.63;5048768;28;20029;-23
2021/05/25 01:30:27;;;;;;;;;;;;;;;17.31;62.36;100693.06;5048630;28;20037;-23
2021/05/25 01:32:53;;;;;;;2.88;2.00;;;;;;;17.02;62.99;100658.97;5048575;28;19917;-23
2021/05/25 01:35:19;;;;;;;4.80;2.10;;;;;;;17.20;62.84;100682.13;5048402;28;20033;-23
2021/05/25 01:37:45;;;;;;;6.50;2.53;;;;;;;17.13;63.52;100686.88;5048497;28;20041;-23
2021/05/25 01:40:11;;;;;;;4.50;2.33;;;;;;;17.25;62.94;100679.50;5048061;28;20025;-24
2021/05/25 01:42:37;;;;;;;4.38;2.30;;;;;;;17.49;62.23;100681.97;5048222;28;20480;-23
2021/05/25 01:45:04;;;;;;;5.82;2.70;;;;;;;17.30;62.11;100664.44;5046831;28;20036;-24
2021/05/25 01:47:30;;;;;;;4.30;2.58;;;;;;;17.24;63.05;100672.47;5048612;28;20025;-23
2021/05/25 01:50:11;;;;;;;4.13;2.65;;;;;;;17.12;63.10;100669.06;5047913;28;20103;-23
2021/05/25 01:53:22;;;;;;;4.47;2.40;;;;;;;17.24;62.84;100664.41;5047176;28;20033;-23
2021/05/25 01:55:44;;;;;;;4.30;2.60;;;;;;;17.06;63.45;100661.94;5048773;28;20121;-24
2021/05/25 01:58:30;;;;;;;3.63;2.30;;;;;;;16.60;65.12;100643.19;5048144;28;20439;-23
2021/05/25 02:00:57;;;;;;;3.92;2.85;;;;;;;16.37;65.92;100629.88;5048279;28;20131;-23
2021/05/25 02:03:23;;;;;;;4.93;2.73;;;;;;;16.29;66.31;100632.97;5047985;28;20154;-23
2021/05/25 02:05:48;;;;;;;6.57;3.10;;;;;;;16.42;66.19;100649.63;5047853;28;20374;-23
2021/05/25 02:08:15;;;;;;;5.00;2.90;;;;;;;16.53;66.15;100660.56;5047452;28;20485;-23
2021/05/25 02:10:45;;;;;;;5.20;2.90;;;;;;;16.55;65.70;100647.66;5047807;28;20036;-23
2021/05/25 02:13:12;;;;;;;7.03;3.67;;;;;;;16.95;64.66;100661.00;5048023;28;20533;-23
2021/05/25 02:15:38;;;;;;;4.43;2.95;;;;;;;16.62;65.62;100648.34;5048068;28;20045;-24
2021/05/25 02:18:05;;;;;;;5.22;3.90;;;;;;;16.61;65.68;100652.06;5046749;28;20132;-24
2021/05/25 02:20:30;;;;;;;7.90;3.25;;;;;;;16.89;64.85;100648.50;5047433;28;20377;-24
2021/05/25 02:22:56;;;;;;;6.22;3.33;;;;;;;16.61;65.82;100652.91;5047740;28;20455;-23
2021/05/25 02:25:21;;;;;;;6.35;3.33;;;;;;;16.78;65.45;100650.22;5047475;28;20040;-24
2021/05/25 02:27:47;;;;;;;4.72;3.20;;;;;;;16.60;65.69;100645.88;5047423;28;20039;-23
2021/05/25 02:30:15;;;;;;;4.63;3.20;;;;;;;16.89;64.91;100653.91;5047506;28;20044;-24
2021/05/25 02:32:41;;;;;;;5.97;3.28;;;;;;;17.09;64.10;100655.28;5047328;28;20032;-23
2021/05/25 02:35:07;;;;;;;7.38;3.47;;;;;;;16.98;64.46;100665.06;5047287;28;20052;-24
2021/05/25 02:37:33;;;;;;;8.95;6.90;;;;;;;17.16;63.63;100656.75;5046925;28;20113;-23
2021/05/25 02:39:58;;;;;;;15.23;8.65;;;;;;;17.33;63.16;100648.59;5047319;28;20021;-24
2021/05/25 02:42:24;;;;;;;13.82;9.60;;;;;;;17.36;63.21;100668.84;5047124;28;20031;-24
2021/05/25 02:44:50;;;;;;;17.52;11.02;;;;;;;17.18;63.61;100667.25;5047441;28;20025;-23
2021/05/25 02:47:15;;;;;;;12.25;8.73;;;;;;;16.99;64.19;100664.03;5046180;28;20361;-23
2021/05/25 02:49:41;;;;;;;11.25;7.10;;;;;;;17.23;63.42;100665.44;5046997;28;20413;-24
2021/05/25 02:52:06;;;;;;;8.68;5.22;;;;;;;17.82;61.33;100672.94;5047173;28;20416;-24
2021/05/25 02:54:32;;;;;;;9.63;5.25;;;;;;;18.14;60.57;100671.41;5047019;28;20478;-24
2021/05/25 02:56:58;;;;;;;8.55;4.82;;;;;;;17.57;62.07;100672.63;5047178;28;20486;-23
2021/05/25 02:59:23;;;;;;;10.07;6.00;;;;;;;17.79;61.13;100665.34;5047246;28;20037;-24
2021/05/25 03:01:49;;;;;;;9.20;5.63;;;;;;;17.30;63.09;100683.31;5047306;28;20041;-24
2021/05/25 03:04:14;;;;;;;8.10;5.53;;;;;;;17.00;63.82;100665.63;5046597;28;20024;-24
2021/05/25 03:06:40;;;;;;;18.55;6.72;;;;;;;16.93;64.88;100675.78;5046956;28;20033;-23
2021/05/25 03:09:06;;;;;;;6.63;4.30;;;;;;;16.60;65.77;100662.03;5047011;28;20025;-24
2021/05/25 03:11:32;;;;;;;6.70;4.30;;;;;;;16.27;66.52;100641.28;5046617;28;20122;-23
2021/05/25 03:13:57;;;;;;;7.28;4.68;;;;;;;16.53;65.93;100664.09;5047075;28;20029;-24
2021/05/25 03:16:23;;;;;;;6.22;3.83;;;;;;;16.61;65.95;100662.84;5046781;28;20036;-24
2021/05/25 03:18:48;;;;;;;7.65;4.28;;;;;;;16.64;65.60;100665.06;5046722;28;20134;-23
2021/05/25 03:21:14;;;;;;;5.65;4.00;;;;;;;16.77;65.53;100672.00;5046880;28;20033;-23
2021/05/25 03:23:39;;;;;;;9.30;4.65;;;;;;;16.52;66.33;100646.28;5047260;28;20575;-23
2021/05/25 03:26:05;;;;;;;7.38;4.13;;;;;;;16.57;66.22;100667.91;5046751;28;20917;-23
2021/05/25 03:28:31;;;;;;;12.05;4.40;;;;;;;16.91;65.24;100667.13;5045412;28;20039;-23
2021/05/25 03:30:56;;;;;;;9.10;4.50;;;;;;;16.71;65.35;100654.94;5046705;28;20394;-23
2021/05/25 03:33:22;;;;;;;8.60;4.40;;;;;;;17.37;63.68;100675.88;5046455;28;20463;-23
2021/05/25 03:35:47;;;;;;;10.32;4.45;;;;;;;17.67;62.70;100676.28;5046247;28;20067;-24
2021/05/25 03:38:13;;;;;;;12.38;5.75;;;;;;;18.17;61.00;100692.50;5045970;28;20394;-24
2021/05/25 03:40:39;;;;;;;11.85;4.72;;;;;;;18.34;59.44;100678.91;5046801;28;20072;-23
2021/05/25 03:43:04;;;;;;;11.02;5.15;;;;;;;18.24;60.30;100703.91;5046685;28;20040;-24
2021/05/25 03:45:30;;;;;;;6.57;4.05;;;;;;;17.55;62.75;100699.03;5046643;28;20087;-24
2021/05/25 03:47:55;;;;;;;6.95;4.10;;;;;;;17.30;64.49;100696.81;5046395;28;20063;-23
2021/05/25 03:50:21;;;;;;;8.55;4.40;;;;;;;18.17;65.19;100697.91;5047395;28;20140;-23
2021/05/25 03:52:48;;;;;;;12.38;6.68;;;;;;;18.26;63.78;100683.69;5050447;28;20061;-24
2021/05/25 03:55:28;;;;;;;139.27;72.35;;;;;;;17.91;62.69;100665.22;5050267;28;20055;-24
2021/05/25 04:00:37;;;;;;;10.02;5.60;;;;;;;17.66;63.01;100684.63;5050585;28;20106;-24
2021/05/25 04:03:03;;;;;;;10.30;7.32;;;;;;;17.72;64.07;100699.78;5050537;28;20839;-23
2021/05/25 04:05:28;;;;;;;15.07;7.47;;;;;;;19.11;64.21;100693.88;5050159;28;20064;-24
2021/05/25 04:07:54;;;;;;;10.52;5.90;;;;;;;19.58;60.42;100692.25;5050012;28;20071;-24
2021/05/25 04:10:20;;;;;;;73.80;36.03;;;;;;;20.04;59.84;100698.69;5049887;28;20040;-24
2021/05/25 04:12:45;;;;;;;198.60;73.30;;;;;;;20.42;57.39;100688.47;5048563;28;20032;-24
2021/05/25 04:15:11;;;;;;;82.25;44.67;;;;;;;20.00;58.12;100681.34;5049971;28;20090;-24
2021/05/25 04:17:37;;;;;;;40.97;23.60;;;;;;;19.63;59.08;100684.94;5050200;28;20029;-24
2021/05/25 04:20:03;;;;;;;20.83;13.15;;;;;;;20.15;57.77;100701.44;5049934;28;20048;-24
2021/05/25 04:22:29;;;;;;;27.33;16.95;;;;;;;20.15;56.99;100702.22;5049674;28;20035;-24
2021/05/25 04:24:54;;;;;;;34.88;21.10;;;;;;;19.87;58.55;100689.97;5050364;28;20037;-23
2021/05/25 04:27:20;;;;;;;24.27;14.07;;;;;;;19.90;58.42;100700.28;5048327;28;20033;-24
2021/05/25 04:29:45;;;;;;;20.65;14.65;;;;;;;19.26;59.88;100696.66;5049640;28;20558;-26
2021/05/25 04:32:11;;;;;;;16.63;11.60;;;;;;;19.18;59.20;100689.06;5049378;28;20051;-26
2021/05/25 04:34:37;;;;;;;10.38;6.13;;;;;;;18.77;59.53;100696.03;5049720;28;20040;-25
2021/05/25 04:37:02;;;;;;;8.63;4.82;;;;;;;18.62;61.00;100694.03;5049666;28;20021;-26
2021/05/25 04:39:28;;;;;;;13.35;6.55;;;;;;;18.56;61.76;100703.16;5049828;28;20029;-25
2021/05/25 04:41:53;;;;;;;5.18;3.38;;;;;;;18.38;60.85;100705.13;5049400;28;20032;-26
2021/05/25 04:44:19;;;;;;;8.18;5.32;;;;;;;19.19;60.02;100722.34;5049081;28;20039;-26
2021/05/25 04:46:44;;;;;;;5.75;2.97;;;;;;;19.34;58.06;100703.47;5049639;28;20029;-25
2021/05/25 04:49:10;;;;;;;7.18;2.85;;;;;;;18.59;59.96;100702.63;5049428;28;20029;-25
2021/05/25 04:51:35;;;;;;;6.38;2.53;;;;;;;18.42;60.56;100711.66;5049068;28;20432;-25
2021/05/25 04:54:01;;;;;;;11.10;4.13;;;;;;;18.27;61.49;100700.72;5049092;28;20045;-26
2021/05/25 04:56:27;;;;;;;6.57;3.80;;;;;;;18.73;59.76;100714.63;5048980;28;20035;-26
2021/05/25 04:58:53;;;;;;;3.60;2.42;;;;;;;17.95;62.09;100709.53;5048996;28;20033;-26
2021/05/25 05:01:18;;;;;;;6.43;3.40;;;;;;;18.42;61.24;100708.97;5048880;28;20033;-26
2021/05/25 05:03:44;;;;;;;9.45;3.60;;;;;;;18.85;59.76;100712.59;5048972;28;20021;-26
2021/05/25 05:06:10;;;;;;;5.78;3.20;;;;;;;18.99;59.13;100709.47;5048843;28;20040;-26
2021/05/25 05:08:35;;;;;;;4.32;2.30;;;;;;;18.72;60.18;100712.22;5048942;28;20424;-26
2021/05/25 05:11:01;;;;;;;4.43;2.22;;;;;;;18.96;58.46;100713.53;5048736;28;20033;-27
2021/05/25 05:13:26;;;;;;;8.32;4.28;;;;;;;19.01;59.73;100720.84;5048887;28;20032;-27
2021/05/25 05:15:52;;;;;;;6.30;3.65;;;;;;;19.00;59.75;100693.00;5048980;28;20033;-26
2021/05/25 05:18:17;;;;;;;4.95;2.15;;;;;;;18.61;59.80;100711.28;5048626;28;20425;-26
2021/05/25 05:20:43;;;;;;;5.32;2.65;;;;;;;18.53;60.15;100704.50;5048721;28;20409;-26
2021/05/25 05:23:08;;;;;;;4.38;2.20;;;;;;;18.55;60.52;100701.50;5048720;28;20017;-26
2021/05/25 05:25:35;;;;;;;4.22;2.30;;;;;;;18.69;60.31;100702.72;5048751;28;20032;-26
2021/05/25 05:28:00;;;;;;;4.13;2.50;;;;;;;18.71;60.63;100705.97;5048373;28;20037;-25
2021/05/25 05:30:26;;;;;;;5.35;2.33;;;;;;;18.94;60.25;100683.25;5048453;28;20037;-25
2021/05/25 05:32:52;;;;;;;5.85;2.30;;;;;;;19.60;57.78;100707.16;5048752;28;20796;-26
2021/05/25 05:35:17;;;;;;;3.33;2.10;;;;;;;19.78;57.23;100708.63;5048674;28;20382;-26
2021/05/25 05:37:43;;;;;;;4.55;2.20;;;;;;;19.43;58.08;100709.19;5048627;28;20074;-26
2021/05/25 05:40:09;;;;;;;3.30;2.17;;;;;;;19.35;59.10;100699.72;5048357;28;20044;-25
2021/05/25 05:42:34;;;;;;;7.13;3.00;;;;;;;19.40;58.41;100702.44;5047915;28;20082;-25
2021/05/25 05:45:00;;;;;;;21.42;9.40;;;;;;;19.45;59.53;100698.94;5047416;28;20045;-26
2021/05/25 05:47:25;;;;;;;6.38;3.70;;;;;;;19.59;59.46;100700.09;5048066;28;20162;-26
2021/05/25 05:49:51;;;;;;;6.80;2.95;;;;;;;19.51;58.85;100692.47;5047970;28;20067;-24
2021/05/25 05:52:17;;;;;;;3.13;1.90;;;;;;;19.58;58.60;100682.25;5047923;28;20036;-24
2021/05/25 05:54:42;;;;;;;6.32;2.10;;;;;;;20.26;56.87;100692.22;5048290;28;20032;-23
2021/05/25 05:57:08;;;;;;;6.65;2.90;;;;;;;20.23;56.97;100696.28;5047974;28;20021;-24
2021/05/25 05:59:33;;;;;;;25.35;5.97;;;;;;;20.20;57.42;100693.31;5048185;28;20067;-24
2021/05/25 06:01:59;;;;;;;5.07;1.90;;;;;;;20.34;56.27;100682.78;5046836;28;20060;-24
2021/05/25 06:04:24;;;;;;;4.65;1.83;;;;;;;20.38;55.40;100683.84;5047982;28;20064;-24
2021/05/25 06:06:50;;;;;;;2.90;1.90;;;;;;;20.45;55.21;100684.38;5047807;28;20111;-24
2021/05/25 06:09:15;;;;;;;3.53;1.50;;;;;;;20.26;55.24;100681.41;5047976;28;20094;-23
2021/05/25 06:11:41;;;;;;;3.43;1.50;;;;;;;20.44;55.33;100682.78;5047639;28;20025;-24
2021/05/25 06:14:06;;;;;;;11.68;2.20;;;;;;;20.55;55.01;100672.75;5047423;28;20301;-24
2021/05/25 06:16:33;;;;;;;4.93;1.90;;;;;;;21.07;52.45;100685.22;5047670;28;20085;-23
2021/05/25 06:18:59;;;;;;;4.30;1.80;;;;;;;20.86;53.31;100679.84;5047897;28;20035;-23
2021/05/25 06:21:25;;;;;;;1.92;1.50;;;;;;;20.83;53.15;100695.81;5047651;28;20208;-23
2021/05/25 06:23:51;;;;;;;3.33;1.80;;;;;;;20.84;53.71;100690.13;5047627;28;20029;-24
2021/05/25 06:26:19;;;;;;;4.25;1.48;;;;;;;20.98;54.03;100681.44;5047119;28;20029;-24
2021/05/25 06:28:45;;;;;;;3.08;1.60;;;;;;;21.21;52.38;100694.44;5047639;28;20033;-23
2021/05/25 06:31:10;;;;;;;3.53;1.67;;;;;;;21.41;51.92;100692.72;5047484;28;20429;-24
2021/05/25 06:33:36;;;;;;;2.47;1.50;;;;;;;21.63;51.43;100689.72;5047667;28;20048;-24
2021/05/25 06:36:02;;;;;;;4.65;1.70;;;;;;;21.58;52.01;100695.16;5048061;28;20409;-23
2021/05/25 06:38:27;;;;;;;2.85;1.38;;;;;;;21.83;51.22;100691.53;5047401;28;20056;-23
2021/05/25 06:40:53;;;;;;;2.92;1.45;;;;;;;21.76;51.68;100696.44;5047097;28;20405;-23
2021/05/25 06:43:18;;;;;;;5.38;1.73;;;;;;;22.19;49.73;100696.75;5047295;28;20401;-23
2021/05/25 06:45:45;;;;;;;3.75;2.45;;;;;;;21.83;49.91;100680.66;5047268;28;20039;-23
2021/05/25 06:48:10;;;;;;;5.03;2.30;;;;;;;22.11;50.68;100670.19;5047125;28;20489;-24
2021/05/25 06:50:36;;;;;;;2.85;1.50;;;;;;;21.97;50.47;100668.09;5046917;28;20051;-23
2021/05/25 06:53:02;;;;;;;2.83;1.40;;;;;;;22.27;49.89;100658.97;5046993;28;20108;-23
2021/05/25 06:55:28;;;;;;;3.63;1.60;;;;;;;22.48;49.60;100647.16;5047033;28;20116;-23
2021/05/25 06:57:54;;;;;;;3.70;1.55;;;;;;;22.49;48.86;100670.50;5047330;28;20108;-23
2021/05/25 07:00:21;;;;;;;5.90;1.70;;;;;;;22.55;49.15;100670.16;5047053;28;20033;-23
2021/05/25 07:02:46;;;;;;;2.43;1.40;;;;;;;22.32;48.82;100668.19;5047243;28;20028;-25
2021/05/25 07:05:12;;;;;;;4.70;1.70;;;;;;;22.33;50.15;100667.91;5047359;28;20083;-23
2021/05/25 07:07:37;;;;;;;3.30;1.50;;;;;;;22.87;48.60;100672.34;5046951;28;20025;-23
2021/05/25 07:10:03;;;;;;;4.75;1.70;;;;;;;22.55;48.30;100681.03;5046714;28;20409;-23
2021/05/25 07:12:29;;;;;;;5.25;2.00;;;;;;;22.65;48.09;100663.84;5046673;28;20033;-23
2021/05/25 07:14:54;;;;;;;3.92;1.70;;;;;;;23.06;48.47;100668.94;5046795;28;20114;-23
2021/05/25 07:17:20;;;;;;;3.65;1.40;;;;;;;22.86;47.76;100668.00;5046996;28;20080;-23
2021/05/25 07:19:45;;;;;;;3.28;1.60;;;;;;;22.54;47.42;100654.97;5046994;28;20215;-23
2021/05/25 07:22:11;;;;;;;2.53;1.40;;;;;;;22.70;47.43;100633.91;5046566;28;20055;-23
2021/05/25 07:24:37;;;;;;;3.05;1.60;;;;;;;22.48;47.52;100647.16;5048230;28;20052;-23
2021/05/25 07:27:02;;;;;;;3.78;1.60;;;;;;;22.69;47.45;100643.16;5050909;28;20404;-23
2021/05/25 07:29:28;;;;;;;4.70;1.58;;;;;;;23.33;46.66;100654.75;5051025;28;20049;-23
2021/05/25 07:31:54;;;;;;;4.53;1.88;;;;;;;23.18;47.08;100644.84;5050705;28;20106;-23
2021/05/25 07:34:19;;;;;;;3.88;1.60;;;;;;;22.99;46.99;100641.25;5050348;28;20112;-23
2021/05/25 07:36:47;;;;;;;1.95;1.33;;;;;;;23.22;47.03;100651.34;5050671;28;20108;-23
2021/05/25 07:39:12;;;;;;;4.65;1.95;;;;;;;23.52;46.23;100643.94;5050457;28;20096;-23
2021/05/25 07:41:38;;;;;;;2.90;1.33;;;;;;;23.40;45.44;100640.81;5050683;28;20040;-24
2021/05/25 07:44:04;;;;;;;3.65;1.80;;;;;;;23.61;45.75;100631.28;5050973;28;20115;-24
2021/05/25 07:46:30;;;;;;;4.35;1.80;;;;;;;23.96;45.90;100626.47;5050568;28;20076;-23
2021/05/25 07:48:56;;;;;;;3.10;1.58;;;;;;;24.17;45.05;100629.72;5050732;28;20072;-23
2021/05/25 07:51:22;;;;;;;3.60;1.65;;;;;;;24.18;44.18;100617.69;5050329;28;20147;-23
2021/05/25 07:53:47;;;;;;;5.70;1.73;;;;;;;24.45;43.04;100632.50;5050158;28;20032;-23
2021/05/25 07:56:13;;;;;;;4.13;1.83;;;;;;;24.34;43.18;100631.88;5050205;28;20036;-24
2021/05/25 07:58:38;;;;;;;5.65;1.80;;;;;;;24.40;43.09;100624.44;5050604;28;20037;-23
2021/05/25 08:01:04;;;;;;;3.03;1.63;;;;;;;24.58;42.71;100631.78;5050695;28;20143;-23
2021/05/25 08:03:29;;;;;;;2.95;1.58;;;;;;;23.91;42.88;100621.09;5050379;28;20477;-23
2021/05/25 08:05:57;;;;;;;4.22;1.85;;;;;;;24.36;43.24;100618.75;5050200;28;20029;-23
2021/05/25 08:08:23;;;;;;;5.05;1.95;;;;;;;24.17;44.19;100626.97;5049701;28;20044;-23
2021/05/25 08:10:49;;;;;;;4.40;1.95;;;;;;;24.78;42.85;100627.88;5050292;28;20488;-23
2021/05/25 08:13:14;;;;;;;2.53;1.80;;;;;;;25.18;41.38;100627.41;5050025;28;20549;-23
2021/05/25 08:15:41;;;;;;;5.70;1.70;;;;;;;25.22;41.78;100623.81;5049998;28;20470;-23
2021/05/25 08:20:35;;;;;;;3.28;1.80;;;;;;;25.28;42.59;100638.16;5049690;28;20412;-24
2021/05/25 08:23:01;;;;;;;3.72;1.70;;;;;;;25.14;41.78;100629.13;5049705;28;20028;-23
2021/05/25 08:25:30;;;;;;;4.30;1.85;;;;;;;25.05;41.79;100618.94;5049847;28;20040;-23
2021/05/25 08:27:56;;;;;;;3.30;1.63;;;;;;;25.30;41.68;100624.22;5049772;28;20025;-23
2021/05/25 08:30:23;;;;;;;3.33;2.00;;;;;;;25.36;42.33;100618.34;5049514;28;20093;-23
2021/05/25 08:32:50;;;;;;;5.50;2.35;;;;;;;25.41;41.49;100614.69;5049866;28;20025;-23
2021/05/25 08:35:16;;;;;;;2.83;1.70;;;;;;;26.08;40.42;100627.72;5049263;28;20036;-23
2021/05/25 08:37:41;;;;;;;5.10;1.77;;;;;;;25.66;40.44;100622.34;5048775;28;20052;-23
2021/05/25 08:40:09;;;;;;;2.95;2.22;;;;;;;25.28;42.24;100623.72;5048512;28;20078;-23
2021/05/25 08:42:35;;;;;;;;;;;;;;;25.36;40.98;100614.81;5049716;28;20166;-24
2021/05/25 08:45:05;;;;;;;5.03;2.05;;;;;;;24.96;40.42;100615.28;5048058;28;20007;-23
2021/05/25 08:47:31;;;;;;;4.38;1.80;;;;;;;25.77;41.46;100622.13;5049497;28;20171;-23
2021/05/25 08:49:56;;;;;;;2.55;1.80;;;;;;;26.14;40.01;100612.81;5047622;28;20124;-23
2021/05/25 08:52:22;;;;;;;4.30;1.73;;;;;;;26.11;41.86;100621.63;5031540;28;20083;-23
2021/05/25 08:54:48;;;;;;;4.03;1.98;;;;;;;26.20;40.33;100606.09;5049329;28;20036;-24
2021/05/25 08:57:13;;;;;;;4.15;2.10;;;;;;;25.88;41.68;100603.56;5049442;28;20120;-23
2021/05/25 08:59:39;;;;;;;4.25;2.40;;;;;;;25.66;40.90;100610.59;5049419;28;20191;-23
2021/05/25 09:02:05;;;;;;;4.45;2.30;;;;;;;25.41;41.20;100610.03;5049320;28;20060;-23
2021/05/25 09:04:56;;;;;;;5.95;2.33;;;;;;;25.79;41.21;100603.50;5049001;28;20029;-23
2021/05/25 09:07:44;;;;;;;5.28;2.70;;;;;;;26.23;40.97;100605.47;5049355;28;20029;-23
2021/05/25 09:10:15;;;;;;;4.05;2.00;;;;;;;26.34;38.19;100584.16;5048990;28;20065;-24
2021/05/25 09:12:44;;;;;;;3.88;2.10;;;;;;;25.69;40.67;100599.06;5048796;28;20516;-23
2021/05/25 09:15:09;;;;;;;3.80;2.22;;;;;;;25.93;40.39;100593.38;5048722;28;20033;-23
2021/05/25 09:17:35;;;;;;;4.53;2.40;;;;;;;26.14;39.73;100587.41;5048968;28;20035;-23
2021/05/25 09:20:01;;;;;;;3.25;2.25;;;;;;;26.36;41.19;100592.88;5049023;28;20409;-23
2021/05/25 09:22:40;;;;;;;6.55;2.92;;;;;;;26.75;39.18;100591.34;5048567;28;20115;-23
2021/05/25 09:25:23;;;;;;;5.57;2.70;;;;;;;26.93;38.31;100570.31;5048727;28;20037;-23
2021/05/25 09:28:03;;;;;;;5.15;2.50;;;;;;;26.98;38.54;100572.09;5048833;28;20037;-23
2021/05/25 09:30:29;;;;;;;7.47;2.50;;;;;;;27.03;38.62;100580.16;5048519;28;20105;-26
2021/05/25 09:32:59;;;;;;;4.53;2.40;;;;;;;26.85;37.81;100574.63;5047427;28;20029;-23
2021/05/25 09:35:27;;;;;;;4.90;2.90;;;;;;;26.75;39.50;100563.16;5048506;28;20485;-23
2021/05/25 09:37:54;;;;;;;6.40;2.42;;;;;;;26.37;39.45;100550.72;5048204;28;20029;-23
2021/05/25 09:40:23;;;;;;;5.32;2.40;;;;;;;26.55;39.88;100543.41;5048497;28;20072;-23
2021/05/25 09:42:52;;;;;;;4.13;2.60;;;;;;;26.17;39.96;100560.22;5048586;28;20832;-23
2021/05/25 09:45:18;;;;;;;6.15;2.88;;;;;;;26.20;40.73;100558.81;5046848;28;20037;-23
2021/05/25 09:47:46;;;;;;;5.22;2.90;;;;;;;26.92;38.66;100554.22;5048174;28;20035;-23
2021/05/25 09:50:13;;;;;;;4.07;3.13;;;;;;;27.35;37.93;100548.06;5047607;28;20451;-23
2021/05/25 09:53:01;;;;;;;7.10;3.10;;;;;;;28.09;36.43;100546.28;5046926;28;20138;-23
2021/05/25 09:55:27;;;;;;;6.53;3.30;;;;;;;27.85;37.36;100553.88;5048070;28;20040;-23
2021/05/25 09:57:54;;;;;;;6.57;3.00;;;;;;;27.95;37.10;100550.03;5048104;28;20045;-23
2021/05/25 10:00:28;;;;;;;4.95;3.03;;;;;;;28.24;36.75;100540.31;5046647;28;20032;-23
2021/05/25 10:03:14;;;;;;;4.47;2.97;;;;;;;28.33;37.37;100538.34;5048123;28;20053;-23
2021/05/25 10:05:50;;;;;;;7.38;3.50;;;;;;;28.35;37.03;100547.03;5048189;28;20033;-23
2021/05/25 10:08:17;;;;;;;5.78;3.40;;;;;;;28.51;36.32;100532.84;5047886;28;20032;-24
2021/05/25 10:10:43;;;;;;;5.10;3.33;;;;;;;28.49;37.24;100526.84;5047763;28;20040;-23
2021/05/25 10:13:09;;;;;;;6.25;3.35;;;;;;;28.35;36.37;100505.09;5047706;28;20025;-23
2021/05/25 10:15:35;;;;;;;6.90;3.88;;;;;;;27.82;38.24;100507.91;5047630;28;20450;-23
2021/05/25 10:20:29;;;;;;;9.63;3.78;;;;;;;28.79;36.59;100512.03;5047550;28;20253;-23
2021/05/25 10:22:55;;;;;;;7.43;3.70;;;;;;;29.07;36.48;100514.28;5047683;28;20028;-23
2021/05/25 10:25:21;;;;;;;5.90;3.13;;;;;;;28.61;36.81;100516.00;5047710;28;20480;-23
2021/05/25 10:27:47;;;;;;;5.60;3.20;;;;;;;28.36;37.40;100504.78;5047304;28;20108;-23
2021/05/25 10:30:22;;;;;;;9.07;3.67;;;;;;;28.75;36.65;100513.84;5045921;28;20118;-23
2021/05/25 10:32:51;;;;;;;6.15;4.00;;;;;;;28.35;37.04;100481.22;5047413;28;20036;-23
2021/05/25 10:35:20;;;;;;;5.50;3.38;;;;;;;28.24;37.26;100490.94;5047571;28;20037;-23
2021/05/25 10:38:04;;;;;;;9.27;3.83;;;;;;;29.17;35.93;100516.66;5047345;28;20043;-23
2021/05/25 10:40:39;;;;;;;5.70;3.30;;;;;;;29.02;36.11;100498.03;5047091;28;20043;-23
2021/05/25 10:43:36;;;;;;;4.32;3.30;;;;;;;28.64;37.55;100498.88;5047662;28;20024;-23
2021/05/25 10:46:28;;;;;;;6.15;3.60;;;;;;;29.11;35.91;100496.03;5047255;28;20064;-23
2021/05/25 10:49:02;;;;;;;7.38;3.60;;;;;;;29.07;35.89;100483.28;5046701;28;20040;-23
2021/05/25 10:51:46;;;;;;;6.72;3.67;;;;;;;29.54;36.37;100480.34;5047078;28;20056;-23
2021/05/25 10:54:36;;;;;;;6.50;3.50;;;;;;;30.24;35.49;100477.75;5046808;28;20029;-23
2021/05/25 10:57:32;;;;;;;5.18;2.97;;;;;;;29.70;36.22;100480.53;5047379;28;20506;-23
2021/05/25 11:00:03;;;;;;;6.18;3.30;;;;;;;29.78;36.01;100472.22;5046958;28;20116;-23
2021/05/25 11:02:44;;;;;;;7.05;3.30;;;;;;;30.39;35.09;100460.56;5046951;28;20497;-23
2021/05/25 11:05:35;;;;;;;8.18;3.25;;;;;;;29.78;35.52;100468.69;5047223;28;20029;-23
2021/05/25 11:08:10;;;;;;;5.10;3.42;;;;;;;29.92;36.62;100463.69;5047190;28;20036;-23
2021/05/25 11:10:45;;;;;;;6.60;3.30;;;;;;;29.91;35.29;100451.06;5046886;28;20025;-23
2021/05/25 11:13:17;;;;;;;5.07;2.70;;;;;;;30.68;34.17;100449.69;5046922;28;20059;-23
2021/05/25 11:16:13;;;;;;;8.40;3.38;;;;;;;30.87;34.29;100451.81;5046761;28;20035;-23
2021/05/25 11:22:23;;;;;;;4.15;2.92;;;;;;;30.21;34.35;100437.16;5047321;28;20493;-23
2021/05/25 11:24:34;;;;;;;4.82;3.00;;;;;;;30.66;33.63;100441.75;5049592;28;20045;-23
2021/05/25 11:27:03;;;;;;;6.50;3.22;;;;;;;30.23;34.08;100441.16;5047184;28;20025;-23
2021/05/25 11:29:33;;;;;;;5.40;3.05;;;;;;;30.46;34.25;100437.97;5047012;28;20075;-23
2021/05/25 11:32:03;;;;;;;4.15;3.10;;;;;;;30.39;34.49;100427.56;5046686;28;20111;-23
2021/05/25 11:34:29;;;;;;;5.25;2.80;;;;;;;30.76;33.82;100441.28;5046955;28;20037;-23
2021/05/25 11:37:00;;;;;;;8.85;2.75;;;;;;;31.00;32.74;100423.94;5046655;28;20091;-23
2021/05/25 11:39:28;;;;;;;5.13;2.70;;;;;;;31.38;33.08;100433.66;5046793;28;20071;-23